Terminal Aerodrome Forecast
Issued by NWS Detroit/Pontiac, MI

Home | Current Version | Previous Version | Text Only | Print | Product List | Glossary On
Versions: 1 2 3 4 5 6 7 8 9 10 11 12 13 14
000
FTUS43 KDTX 221123
TAFFNT
TAF
KFNT 221123Z 2212/2312 32010KT P6SM OVC040
     FM221600 28010KT P6SM BKN045
     FM222000 24008KT P6SM SCT045
     FM230100 22006KT P6SM BKN250=

USA.gov is the U.S. government's official web portal to all federal, state and local government web resources and services.